Terminal Aerodrome Forecast
Issued by NWS

Home | Current Version | Previous Version | Text Only | Print | Product List | Glossary On
Versions: 1 2 3 4 5 6 7 8 9 10 11 12 13 14 15 16 17 18
000
FTUS43 KDVN 260400 AAA
TAFCID
TAF AMD
KCID 260436Z 2605/2624 05004KT P6SM BKN025
     FM260800 18005KT 6SM BR BKN018
     FM261400 21008KT P6SM VCSH BKN015
     FM261600 24012KT P6SM BKN025
     FM262000 30007KT P6SM BKN028=

USA.gov is the U.S. government's official web portal to all federal, state and local government web resources and services.